Terminal Aerodrome Forecast
Issued by NWS Tallahassee, FL

Home | Current Version | Previous Version | Text Only | Print | Product List | Glossary On
Versions: 1 2 3 4 5 6 7 8 9 10 11 12 13 14 15 16
000
FTUS42 KTAE 051721
TAFTLH
TAF
KTLH 051721Z 0518/0618 VRB15G30KT 1/2SM +TSRA BKN025CB
     FM051830 22005KT 3SM RA BR BKN100
     FM052000 20003KT P6SM -RA BKN120
     FM060200 27003KT P6SM SCT120=

USA.gov is the U.S. government's official web portal to all federal, state and local government web resources and services.